createdAt,value
2019-03-11T00:02:42.121Z,5.59
2019-03-11T00:05:30.148Z,5.63
2019-03-11T00:08:18.510Z,5.63
2019-03-11T00:11:07.535Z,5.69
2019-03-11T00:13:57.081Z,5.73
2019-03-11T00:16:45.505Z,5.83
2019-03-11T00:19:34.217Z,5.76
2019-03-11T00:22:23.217Z,5.73
2019-03-11T00:25:12.338Z,5.84
2019-03-11T00:28:00.969Z,5.81
2019-03-11T00:30:49.795Z,5.84
2019-03-11T00:33:38.337Z,5.84
2019-03-11T00:36:27.035Z,5.84
2019-03-11T00:39:15.849Z,5.78
2019-03-11T00:42:04.414Z,5.79
2019-03-11T00:44:52.504Z,5.89
2019-03-11T00:47:40.740Z,5.88
2019-03-11T00:50:29.396Z,5.79
2019-03-11T00:53:18.210Z,5.77
2019-03-11T00:56:07.279Z,5.76
2019-03-11T00:58:56.273Z,5.75
2019-03-11T01:01:44.681Z,5.72
2019-03-11T01:04:33.410Z,5.72
2019-03-11T01:07:22.192Z,5.61
2019-03-11T01:10:11.150Z,5.55
2019-03-11T01:12:59.476Z,5.58
2019-03-11T01:15:48.329Z,5.51
2019-03-11T01:18:36.820Z,5.44
2019-03-11T01:21:25.453Z,5.52
2019-03-11T01:24:15.075Z,5.47
2019-03-11T01:27:03.411Z,5.51
2019-03-11T01:29:51.807Z,5.51
2019-03-11T01:32:40.360Z,5.49
2019-03-11T01:35:28.756Z,5.42
2019-03-11T01:38:17.550Z,5.33
2019-03-11T01:41:06.605Z,5.36
2019-03-11T01:43:55.289Z,5.31
2019-03-11T01:46:43.331Z,5.33
2019-03-11T01:49:31.943Z,5.31
2019-03-11T01:52:20.422Z,5.32
2019-03-11T01:55:09.191Z,5.31
2019-03-11T01:57:57.535Z,5.23
2019-03-11T02:00:46.240Z,5.21
2019-03-11T02:03:34.579Z,5.14
2019-03-11T02:06:23.189Z,5.15
2019-03-11T02:09:13.381Z,5.10
2019-03-11T02:12:02.136Z,5.10
2019-03-11T02:14:50.994Z,5.14
2019-03-11T02:17:39.567Z,5.09
2019-03-11T02:20:27.558Z,5.05
2019-03-11T02:23:16.060Z,4.99
2019-03-11T02:26:05.159Z,5.02
2019-03-11T02:28:53.681Z,4.92
2019-03-11T02:31:42.271Z,4.98
2019-03-11T02:34:32.841Z,4.99
2019-03-11T02:37:21.588Z,4.86
2019-03-11T02:40:10.724Z,4.86
2019-03-11T02:42:59.343Z,4.83
2019-03-11T02:45:48.151Z,4.81
2019-03-11T02:48:36.408Z,4.85
2019-03-11T02:51:24.642Z,4.81
2019-03-11T02:54:13.768Z,4.84
2019-03-11T02:57:01.893Z,4.81
2019-03-11T02:59:50.992Z,4.79
2019-03-11T03:02:58.470Z,4.71
2019-03-11T03:05:50.135Z,4.68
2019-03-11T03:08:38.543Z,4.74
2019-03-11T03:11:27.474Z,4.73
2019-03-11T03:14:16.663Z,4.73
2019-03-11T03:17:05.301Z,4.73
2019-03-11T03:19:54.045Z,4.75
2019-03-11T03:22:42.650Z,4.71
2019-03-11T03:25:34.327Z,4.68
2019-03-11T03:28:21.340Z,4.67
2019-03-11T03:31:09.846Z,4.63
2019-03-11T03:33:58.051Z,4.61
2019-03-11T03:36:46.109Z,4.58
2019-03-11T03:39:34.882Z,4.61
2019-03-11T03:42:23.879Z,4.63
2019-03-11T03:45:29.789Z,4.70
2019-03-11T03:48:18.725Z,4.74
2019-03-11T03:51:06.960Z,4.74
2019-03-11T03:53:55.727Z,4.72
2019-03-11T03:56:43.977Z,4.75
2019-03-11T03:59:33.350Z,4.68
2019-03-11T04:02:22.511Z,4.71
2019-03-11T04:05:11.296Z,4.70
2019-03-11T04:08:00.339Z,4.67
2019-03-11T04:10:49.525Z,4.61
2019-03-11T04:13:37.903Z,4.55
2019-03-11T04:16:26.204Z,4.51
2019-03-11T04:19:14.805Z,4.44
2019-03-11T04:22:02.857Z,4.55
2019-03-11T04:24:51.914Z,4.54
2019-03-11T04:27:41.123Z,4.52
2019-03-11T04:30:32.856Z,4.58
2019-03-11T04:33:21.897Z,4.63
2019-03-11T04:36:10.332Z,4.61
2019-03-11T04:38:59.184Z,4.58
2019-03-11T04:41:48.232Z,4.55
2019-03-11T04:44:36.632Z,4.63
2019-03-11T04:47:25.533Z,4.73
2019-03-11T04:50:14.802Z,4.75
2019-03-11T04:53:03.448Z,4.82
2019-03-11T04:55:51.927Z,4.84
2019-03-11T04:58:40.597Z,4.90
2019-03-11T05:01:29.575Z,4.90
2019-03-11T05:04:18.052Z,4.93
2019-03-11T05:07:06.754Z,4.98
2019-03-11T05:09:54.950Z,5.05
2019-03-11T05:12:43.628Z,5.12
2019-03-11T05:15:32.728Z,5.11
2019-03-11T05:18:21.317Z,5.14
2019-03-11T05:21:09.766Z,5.15
2019-03-11T05:23:58.726Z,5.17
2019-03-11T05:26:47.394Z,5.19
2019-03-11T05:29:36.308Z,5.22
2019-03-11T05:32:24.634Z,5.25
2019-03-11T05:35:13.342Z,5.27
2019-03-11T05:38:01.809Z,5.29
2019-03-11T05:40:50.823Z,5.29
2019-03-11T05:43:39.830Z,5.30
2019-03-11T05:46:28.172Z,5.30
2019-03-11T05:49:17.594Z,5.33
2019-03-11T05:52:06.233Z,5.39
2019-03-11T05:54:54.394Z,5.37
2019-03-11T05:57:43.273Z,5.42
2019-03-11T06:00:31.950Z,5.45
2019-03-11T06:03:20.399Z,5.41
2019-03-11T06:06:08.910Z,5.43
2019-03-11T06:08:58.195Z,5.47
2019-03-11T06:11:47.366Z,5.49
2019-03-11T06:14:36.359Z,5.49
2019-03-11T06:17:24.959Z,5.53
2019-03-11T06:20:31.270Z,5.54
2019-03-11T06:23:20.161Z,5.54
2019-03-11T06:26:09.001Z,5.59
2019-03-11T06:28:58.021Z,5.61
2019-03-11T06:31:46.749Z,5.66
2019-03-11T06:34:35.269Z,5.67
2019-03-11T06:37:23.528Z,5.66
2019-03-11T06:40:12.320Z,5.63
2019-03-11T06:43:01.395Z,5.61
2019-03-11T06:45:49.911Z,5.50
2019-03-11T06:48:38.995Z,5.46
2019-03-11T06:51:27.233Z,5.43
2019-03-11T06:54:17.700Z,5.31
2019-03-11T06:57:06.747Z,5.18
2019-03-11T06:59:55.614Z,4.92
2019-03-11T07:02:44.028Z,4.43
2019-03-11T07:05:33.242Z,4.05
2019-03-11T07:08:22.099Z,3.73
2019-03-11T07:11:11.007Z,3.38
2019-03-11T07:13:59.542Z,3.14
2019-03-11T07:16:48.316Z,2.82
2019-03-11T07:19:37.375Z,2.38
2019-03-11T07:22:25.969Z,1.92
2019-03-11T07:25:15.161Z,1.51
2019-03-11T07:28:04.058Z,1.19
2019-03-11T07:30:53.213Z,1.07
2019-03-11T07:33:41.956Z,0.99
2019-03-11T07:36:30.557Z,0.93
2019-03-11T07:39:19.109Z,0.93
2019-03-11T07:42:07.950Z,0.93
2019-03-11T07:44:56.761Z,0.98
2019-03-11T07:47:45.447Z,0.98
2019-03-11T07:50:34.354Z,0.94
2019-03-11T07:53:23.277Z,0.93
2019-03-11T07:56:12.092Z,0.90
2019-03-11T07:59:00.564Z,0.91
2019-03-11T08:01:49.448Z,0.86
2019-03-11T08:04:37.877Z,0.92
2019-03-11T08:07:27.620Z,0.88
2019-03-11T08:10:17.205Z,0.87
2019-03-11T08:13:07.857Z,0.87
2019-03-11T08:15:55.929Z,0.85
2019-03-11T08:18:44.139Z,0.84
2019-03-11T08:21:33.447Z,0.79
2019-03-11T08:24:22.561Z,0.76
2019-03-11T08:27:11.549Z,0.75
2019-03-11T08:30:00.363Z,0.71
2019-03-11T08:32:48.897Z,0.67
2019-03-11T08:35:37.819Z,0.67
2019-03-11T08:38:26.302Z,0.67
2019-03-11T08:41:15.187Z,0.65
2019-03-11T08:44:04.039Z,0.71
2019-03-11T08:46:52.237Z,0.75
2019-03-11T08:49:41.336Z,0.76
2019-03-11T08:52:30.125Z,0.80
2019-03-11T08:55:18.587Z,0.82
2019-03-11T08:58:07.507Z,0.82
2019-03-11T09:00:56.001Z,0.85
2019-03-11T09:03:44.812Z,0.89
2019-03-11T09:06:33.783Z,0.90
2019-03-11T09:09:22.686Z,0.97
2019-03-11T09:12:11.523Z,1.05
2019-03-11T09:15:00.320Z,1.09
2019-03-11T09:17:49.501Z,1.18
2019-03-11T09:20:38.327Z,1.19
2019-03-11T09:23:27.520Z,1.26
2019-03-11T09:26:16.601Z,1.25
2019-03-11T09:29:05.260Z,1.31
2019-03-11T09:31:54.123Z,1.28
2019-03-11T09:34:43.015Z,1.33
2019-03-11T09:37:31.698Z,1.38
2019-03-11T09:40:20.446Z,1.42
2019-03-11T09:43:09.080Z,1.46
2019-03-11T09:45:58.028Z,1.50
2019-03-11T09:48:46.710Z,1.53
2019-03-11T09:51:35.877Z,1.55
2019-03-11T09:54:24.812Z,1.69
2019-03-11T09:57:13.300Z,1.72
2019-03-11T10:00:02.140Z,1.74
2019-03-11T10:02:52.611Z,1.75
2019-03-11T10:05:41.220Z,1.67
2019-03-11T10:08:30.649Z,1.45
2019-03-11T10:11:18.787Z,1.34
2019-03-11T10:14:07.114Z,1.18
2019-03-11T10:16:55.852Z,1.17
2019-03-11T10:19:44.630Z,1.07
2019-03-11T10:22:33.334Z,1.08
2019-03-11T10:25:21.804Z,1.05
2019-03-11T10:28:10.146Z,1.11
2019-03-11T10:30:58.726Z,1.14
2019-03-11T10:33:47.763Z,1.20
2019-03-11T10:36:36.444Z,1.24
2019-03-11T10:39:24.788Z,1.21
2019-03-11T10:42:13.509Z,1.29
2019-03-11T10:45:01.967Z,1.28
2019-03-11T10:47:50.792Z,1.28
2019-03-11T10:50:39.543Z,1.33
2019-03-11T10:53:27.793Z,1.40
2019-03-11T10:56:16.757Z,1.36
2019-03-11T10:59:05.748Z,1.41
2019-03-11T11:01:54.530Z,1.51
2019-03-11T11:04:42.796Z,1.67
2019-03-11T11:07:31.142Z,1.93
2019-03-11T11:10:20.039Z,2.08
2019-03-11T11:13:08.831Z,2.27
2019-03-11T11:15:57.614Z,2.60
2019-03-11T11:18:46.206Z,2.68
2019-03-11T11:21:34.343Z,2.65
2019-03-11T11:24:23.157Z,2.69
2019-03-11T11:27:11.560Z,2.82
2019-03-11T11:30:00.744Z,3.00
2019-03-11T11:32:49.940Z,3.21
2019-03-11T11:35:38.332Z,3.34
2019-03-11T11:38:27.202Z,3.28
2019-03-11T11:41:16.735Z,3.33
2019-03-11T11:44:05.157Z,3.34
2019-03-11T11:46:53.783Z,3.29
2019-03-11T11:49:42.619Z,3.33
2019-03-11T11:52:31.386Z,3.41
2019-03-11T11:55:21.271Z,3.43
2019-03-11T11:58:09.950Z,3.41
2019-03-11T12:00:58.720Z,3.27
2019-03-11T12:03:47.667Z,3.26
2019-03-11T12:06:36.455Z,3.33
2019-03-11T12:09:24.568Z,3.33
2019-03-11T12:12:13.309Z,3.29
2019-03-11T12:15:02.067Z,3.28
2019-03-11T12:17:50.904Z,3.30
2019-03-11T12:20:39.562Z,3.43
2019-03-11T12:23:28.034Z,3.53
2019-03-11T12:26:16.853Z,3.54
2019-03-11T12:29:05.663Z,3.71
2019-03-11T12:31:54.028Z,3.92
2019-03-11T12:34:42.112Z,4.15
2019-03-11T12:37:30.431Z,4.45
2019-03-11T12:40:19.486Z,4.51
2019-03-11T12:43:08.692Z,4.49
2019-03-11T12:45:57.374Z,4.58
2019-03-11T12:48:45.596Z,4.70
2019-03-11T12:51:34.154Z,4.90
2019-03-11T12:54:23.203Z,5.02
2019-03-11T12:57:11.286Z,4.98
2019-03-11T12:59:59.642Z,4.99
2019-03-11T13:02:48.733Z,4.70
2019-03-11T13:05:37.542Z,4.63
2019-03-11T13:08:26.477Z,4.69
2019-03-11T13:11:14.542Z,4.69
2019-03-11T13:14:03.297Z,4.92
2019-03-11T13:16:52.180Z,4.88
2019-03-11T13:19:41.351Z,4.91
2019-03-11T13:22:30.182Z,4.92
2019-03-11T13:25:19.078Z,5.14
2019-03-11T13:28:07.925Z,5.27
2019-03-11T13:30:56.815Z,5.49
2019-03-11T13:33:45.201Z,5.51
2019-03-11T13:36:33.806Z,5.58
2019-03-11T13:39:22.504Z,5.30
2019-03-11T13:42:10.695Z,5.26
2019-03-11T13:44:59.105Z,5.17
2019-03-11T13:47:48.037Z,5.16
2019-03-11T13:50:36.700Z,5.17
2019-03-11T13:53:25.434Z,5.00
2019-03-11T13:56:13.722Z,4.86
2019-03-11T13:59:02.766Z,4.74
2019-03-11T14:01:51.399Z,4.50
2019-03-11T14:04:41.568Z,4.27
2019-03-11T14:07:29.531Z,3.94
2019-03-11T14:10:17.949Z,3.85
2019-03-11T14:13:06.564Z,3.66
2019-03-11T14:15:57.068Z,3.52
2019-03-11T14:18:46.010Z,3.59
2019-03-11T14:21:34.996Z,3.82
2019-03-11T14:24:23.389Z,4.09
2019-03-11T14:27:11.843Z,4.38
2019-03-11T14:30:00.380Z,4.50
2019-03-11T14:32:49.081Z,4.66
2019-03-11T14:35:37.216Z,4.82
2019-03-11T14:38:26.309Z,5.03
2019-03-11T14:41:15.326Z,5.26
2019-03-11T14:44:03.987Z,5.24
2019-03-11T14:46:52.730Z,5.06
2019-03-11T14:49:41.364Z,5.39
2019-03-11T14:52:29.802Z,5.44
2019-03-11T14:55:19.118Z,5.23
2019-03-11T14:58:08.030Z,5.01
2019-03-11T15:00:57.316Z,5.23
2019-03-11T15:03:46.227Z,5.53
2019-03-11T15:06:35.097Z,5.30
2019-03-11T15:09:23.858Z,5.06
2019-03-11T15:12:12.970Z,4.68
2019-03-11T15:15:01.743Z,4.44
2019-03-11T15:17:50.327Z,4.28
2019-03-11T15:20:38.279Z,4.13
2019-03-11T15:23:26.859Z,4.05
2019-03-11T15:26:24.666Z,3.68
2019-03-11T15:29:05.818Z,3.35
2019-03-11T15:31:57.396Z,3.19
2019-03-11T15:34:45.515Z,2.88
2019-03-11T15:37:34.269Z,2.55
2019-03-11T15:40:22.724Z,2.24
2019-03-11T15:43:11.374Z,2.08
2019-03-11T15:46:00.037Z,1.98
2019-03-11T15:48:48.506Z,2.02
2019-03-11T15:51:37.127Z,2.12
2019-03-11T15:54:25.750Z,2.26
2019-03-11T15:57:14.792Z,2.49
2019-03-11T16:00:03.694Z,2.55
2019-03-11T16:02:53.087Z,2.48
2019-03-11T16:05:41.285Z,2.50
2019-03-11T16:08:30.055Z,2.47
2019-03-11T16:11:18.789Z,2.51
2019-03-11T16:14:07.270Z,2.37
2019-03-11T16:16:56.113Z,2.09
2019-03-11T16:19:44.605Z,1.94
2019-03-11T16:22:33.157Z,1.76
2019-03-11T16:25:22.055Z,1.62
2019-03-11T16:28:11.068Z,1.44
2019-03-11T16:31:00.397Z,1.40
2019-03-11T16:33:49.433Z,1.45
2019-03-11T16:36:38.104Z,1.44
2019-03-11T16:39:26.635Z,1.48
2019-03-11T16:42:15.113Z,1.61
2019-03-11T16:45:04.852Z,1.71
2019-03-11T16:47:53.746Z,1.74
2019-03-11T16:50:42.113Z,1.70
2019-03-11T16:53:34.063Z,1.67
2019-03-11T16:56:22.824Z,1.59
2019-03-11T16:59:11.849Z,1.57
2019-03-11T17:02:00.914Z,1.61
2019-03-11T17:04:49.442Z,1.62
2019-03-11T17:07:38.379Z,1.66
2019-03-11T17:10:27.626Z,1.66
2019-03-11T17:13:16.318Z,1.73
2019-03-11T17:16:05.432Z,1.75
2019-03-11T17:18:54.291Z,1.70
2019-03-11T17:21:43.064Z,1.70
2019-03-11T17:24:32.230Z,1.68
2019-03-11T17:27:21.398Z,1.64
2019-03-11T17:30:12.762Z,1.69
2019-03-11T17:33:01.219Z,1.70
2019-03-11T17:35:49.654Z,1.68
2019-03-11T17:38:38.648Z,1.64
2019-03-11T17:41:27.477Z,1.62
2019-03-11T17:44:16.077Z,1.57
2019-03-11T17:47:04.493Z,1.65
2019-03-11T17:49:53.167Z,1.66
2019-03-11T17:52:42.043Z,1.60
2019-03-11T17:55:30.855Z,1.65
2019-03-11T17:58:19.885Z,1.63
2019-03-11T18:01:08.946Z,1.66
2019-03-11T18:03:57.437Z,1.65
2019-03-11T18:06:46.132Z,1.61
2019-03-11T18:09:34.602Z,1.60
2019-03-11T18:12:23.361Z,1.61
2019-03-11T18:15:12.984Z,1.56
2019-03-11T18:18:01.490Z,1.58
2019-03-11T18:20:50.400Z,1.56
2019-03-11T18:23:39.206Z,1.61
2019-03-11T18:26:28.469Z,1.62
2019-03-11T18:29:16.903Z,1.64
2019-03-11T18:32:06.083Z,1.63
2019-03-11T18:34:54.700Z,1.63
2019-03-11T18:37:43.654Z,1.63
2019-03-11T18:40:32.707Z,1.59
2019-03-11T18:43:21.846Z,1.58
2019-03-11T18:46:10.542Z,1.57
2019-03-11T18:48:59.208Z,1.65
2019-03-11T18:51:47.496Z,1.70
2019-03-11T18:54:36.986Z,1.65
2019-03-11T18:57:26.339Z,1.62
2019-03-11T19:00:17.925Z,1.60
2019-03-11T19:03:07.399Z,1.61
2019-03-11T19:05:56.427Z,1.55
2019-03-11T19:08:45.280Z,1.57
2019-03-11T19:11:34.190Z,1.56
2019-03-11T19:14:23.244Z,1.59
2019-03-11T19:17:12.407Z,1.55
2019-03-11T19:20:04.606Z,1.54
2019-03-11T19:22:53.765Z,1.54
2019-03-11T19:25:42.501Z,1.54
2019-03-11T19:28:31.538Z,1.59
2019-03-11T19:31:22.422Z,1.55
2019-03-11T19:34:11.621Z,1.56
2019-03-11T19:37:00.818Z,1.57
2019-03-11T19:39:50.176Z,1.59
2019-03-11T19:42:39.227Z,1.58
2019-03-11T19:45:27.929Z,1.59
2019-03-11T19:48:16.930Z,1.59
2019-03-11T19:51:05.830Z,1.50
2019-03-11T19:53:55.152Z,1.54
2019-03-11T19:56:43.916Z,1.47
2019-03-11T19:59:32.736Z,1.52
2019-03-11T20:02:21.513Z,1.48
2019-03-11T20:05:12.071Z,1.42
2019-03-11T20:08:01.000Z,1.46
2019-03-11T20:10:50.055Z,1.46
2019-03-11T20:13:39.301Z,1.48
2019-03-11T20:16:28.172Z,1.50
2019-03-11T20:19:16.567Z,1.49
2019-03-11T20:22:05.644Z,1.54
2019-03-11T20:24:54.672Z,1.49
2019-03-11T20:27:46.715Z,1.54
2019-03-11T20:30:35.946Z,1.58
2019-03-11T20:33:25.038Z,1.58
2019-03-11T20:36:20.511Z,1.54
2019-03-11T20:39:05.329Z,1.59
2019-03-11T20:41:54.170Z,1.59
2019-03-11T20:44:42.801Z,1.59
2019-03-11T20:47:32.305Z,1.61
2019-03-11T20:50:21.776Z,1.63
2019-03-11T20:53:10.836Z,1.63
2019-03-11T20:55:59.730Z,1.62
2019-03-11T20:58:48.842Z,1.61
2019-03-11T21:01:38.088Z,1.63
2019-03-11T21:04:27.531Z,1.65
2019-03-11T21:07:16.610Z,1.65
2019-03-11T21:10:06.575Z,1.69
2019-03-11T21:12:56.037Z,1.69
2019-03-11T21:15:44.952Z,1.65
2019-03-11T21:18:36.606Z,1.65
2019-03-11T21:21:25.700Z,1.62
2019-03-11T21:24:15.051Z,1.67
2019-03-11T21:27:03.803Z,1.70
2019-03-11T21:29:53.195Z,1.70
2019-03-11T21:32:41.532Z,1.71
2019-03-11T21:35:30.232Z,1.75
2019-03-11T21:38:19.218Z,1.75
2019-03-11T21:41:08.408Z,1.76
2019-03-11T21:43:56.928Z,1.78
2019-03-11T21:46:45.859Z,1.81
2019-03-11T21:49:34.858Z,1.85
2019-03-11T21:52:23.403Z,1.88
2019-03-11T21:55:12.078Z,1.88
2019-03-11T21:58:12.510Z,1.95
2019-03-11T22:00:50.670Z,2.02
2019-03-11T22:03:39.805Z,2.02
2019-03-11T22:06:30.670Z,2.05
2019-03-11T22:09:18.790Z,2.12
2019-03-11T22:12:10.400Z,2.18
2019-03-11T22:14:57.436Z,2.18
2019-03-11T22:17:46.132Z,2.24
2019-03-11T22:20:34.610Z,2.30
2019-03-11T22:23:23.805Z,2.33
2019-03-11T22:26:12.843Z,2.35
2019-03-11T22:29:02.225Z,2.34
2019-03-11T22:31:51.200Z,2.35
2019-03-11T22:34:39.956Z,2.41
2019-03-11T22:37:29.069Z,2.44
2019-03-11T22:40:18.116Z,2.48
2019-03-11T22:43:07.567Z,2.45
2019-03-11T22:45:56.643Z,2.50
2019-03-11T22:48:45.767Z,2.56
2019-03-11T22:51:34.708Z,2.58
2019-03-11T22:54:23.553Z,2.62
2019-03-11T22:57:12.635Z,2.62
2019-03-11T23:00:01.015Z,2.59
2019-03-11T23:02:50.456Z,2.60
2019-03-11T23:05:38.920Z,2.62
2019-03-11T23:08:27.901Z,2.64
2019-03-11T23:11:17.065Z,2.64
2019-03-11T23:14:05.878Z,2.64
2019-03-11T23:16:55.001Z,2.64
2019-03-11T23:19:43.996Z,2.60
2019-03-11T23:22:32.868Z,2.62
2019-03-11T23:25:21.626Z,2.60
2019-03-11T23:28:10.456Z,2.63
2019-03-11T23:30:59.078Z,2.63
2019-03-11T23:33:48.159Z,2.65
2019-03-11T23:36:37.180Z,2.63
2019-03-11T23:39:26.177Z,2.61
2019-03-11T23:42:15.601Z,2.63
2019-03-11T23:45:04.674Z,2.65
2019-03-11T23:47:53.658Z,2.66
2019-03-11T23:50:42.624Z,2.66
2019-03-11T23:53:30.817Z,2.66
2019-03-11T23:56:20.130Z,2.65
2019-03-11T23:59:08.939Z,2.65
